Tropical Cyclones
[Index]
Main Index Home Page Stock Weather Photos Extreme Storms Discussion Storm News and Storm Chasing Reports Tropical Cyclones / Hurricanes / Typhoons Weather Data and Links Wild Fires / Bushfires Weather Observation Techniques Weather Picture Catalogue Tornado Pictures and Reports Stock Video Footage and DVDs for sale
Season 2007-2008 Tropical Cyclone 200708_01 Track Map
Season 2007-2008 Summaries: [BoM-AU] [JTWC-AU] [JTWC-SIO] [JTWC-SPAC] [JTWC-SH]
<<- Previous TC | BoM 2007-2008 Season | Next TC ->>

click for intensity scale information  Lat/long Grid: Show Hide

 Date Labels: Show Hide

Bureau of Meteorology Tropical Cyclone Data

Name: 200708_01
Number: 909 / 200708_01

26 Jul 2007 12:00 UTC to 01 Aug 2007 00:00 UTC

    date/time    lat    long    hPa   cat  kts
2007-07-26 12    3.0    86.3   1004         20          
2007-07-26 18    3.4    86.3   1004         20          
2007-07-27 00    3.7    86.2   1002         25          
2007-07-27 06    4.1    86.1   1000         25          
2007-07-27 12    4.4    86.1   1000         25          
2007-07-27 18    4.8    86.0   1000         25          
2007-07-28 00    5.3    86.0   1000         25          
2007-07-28 06    6.0    86.0   1000         25          
2007-07-28 12    6.6    86.5   1000         25          
2007-07-28 18    7.3    87.4   1000         35          
2007-07-29 00    8.1    88.4    998         35          
2007-07-29 06    9.0    89.0    994    1    35          
2007-07-29 12    9.8    89.9    992    1    40          
2007-07-29 18   10.4    90.4    992    1    40          
2007-07-30 00   11.0    91.2    992    1    40          
2007-07-30 06   11.7    91.7    994    1    35          
2007-07-30 12   12.1    91.6    998         30          
2007-07-30 18   12.3    91.0    998         30          
2007-07-31 00   12.2    90.3   1000         25          
2007-07-31 06   12.0    89.9   1000         25          
2007-07-31 12   12.0    89.6   1000         25          
2007-07-31 18   12.0    88.8   1004         25          
2007-08-01 00   12.0    87.9   1004         25          
Winds are 10-min average.

Tropical cyclone tracks developed by Michael Bath using data from the Bureau of Meteorology and Google Maps.


[Australian Severe Weather index] [Copyright Notice] [Email Contacts] [Search This Site] [Privacy Policy]
Document: tropical_cyclone_200708_01.htm Updated: 29 June 2017